sensor_id;sensor_type;location;lat;lon;timestamp;pressure;altitude;pressure_sealevel;temperature;humidity
35888;BME280;21990;42.540;23.496;2023-04-01T00:00:23;92663.19;;;7.47;80.78
35888;BME280;21990;42.540;23.496;2023-04-01T00:02:48;92649.16;;;7.34;81.33
35888;BME280;21990;42.540;23.496;2023-04-01T00:05:14;92646.38;;;7.47;82.65
35888;BME280;21990;42.540;23.496;2023-04-01T00:07:41;92645.53;;;7.52;82.07
35888;BME280;21990;42.540;23.496;2023-04-01T00:10:09;92658.28;;;7.53;80.68
35888;BME280;21990;42.540;23.496;2023-04-01T00:12:35;92659.03;;;7.54;80.43
35888;BME280;21990;42.540;23.496;2023-04-01T00:15:02;92659.66;;;7.47;80.94
35888;BME280;21990;42.540;23.496;2023-04-01T00:17:28;92659.03;;;7.54;81.07
35888;BME280;21990;42.540;23.496;2023-04-01T00:19:57;92657.88;;;7.62;81.29
35888;BME280;21990;42.540;23.496;2023-04-01T00:22:23;92663.88;;;7.67;80.66
35888;BME280;21990;42.540;23.496;2023-04-01T00:24:50;92658.53;;;7.69;80.37
35888;BME280;21990;42.540;23.496;2023-04-01T00:27:15;92647.38;;;7.63;81.87
35888;BME280;21990;42.540;23.496;2023-04-01T00:29:45;92648.06;;;7.69;81.23
35888;BME280;21990;42.540;23.496;2023-04-01T00:32:12;92642.00;;;7.65;80.75
35888;BME280;21990;42.540;23.496;2023-04-01T00:34:37;92644.94;;;7.73;80.08
35888;BME280;21990;42.540;23.496;2023-04-01T00:37:03;92638.81;;;7.74;80.52
35888;BME280;21990;42.540;23.496;2023-04-01T00:39:30;92645.06;;;7.80;80.80
35888;BME280;21990;42.540;23.496;2023-04-01T00:41:56;92639.78;;;7.77;81.25
35888;BME280;21990;42.540;23.496;2023-04-01T00:44:25;92636.63;;;7.80;80.39
35888;BME280;21990;42.540;23.496;2023-04-01T00:46:51;92636.31;;;7.84;80.04
35888;BME280;21990;42.540;23.496;2023-04-01T00:49:20;92629.22;;;7.96;83.48
35888;BME280;21990;42.540;23.496;2023-04-01T00:51:50;92622.22;;;7.89;82.13
35888;BME280;21990;42.540;23.496;2023-04-01T00:54:19;92612.59;;;7.85;81.40
35888;BME280;21990;42.540;23.496;2023-04-01T00:56:52;92615.38;;;7.98;82.75
35888;BME280;21990;42.540;23.496;2023-04-01T00:59:34;92603.00;;;8.06;82.01
35888;BME280;21990;42.540;23.496;2023-04-01T01:02:07;92617.78;;;8.07;81.72
35888;BME280;21990;42.540;23.496;2023-04-01T01:04:34;92605.59;;;8.04;81.69
35888;BME280;21990;42.540;23.496;2023-04-01T01:10:31;92603.09;;;8.14;83.25
35888;BME280;21990;42.540;23.496;2023-04-01T01:13:11;92582.69;;;8.13;83.04
35888;BME280;21990;42.540;23.496;2023-04-01T01:15:56;92586.06;;;8.12;82.79
35888;BME280;21990;42.540;23.496;2023-04-01T01:27:02;92575.38;;;8.10;82.91
35888;BME280;21990;42.540;23.496;2023-04-01T01:32:33;92573.66;;;8.21;81.35
35888;BME280;21990;42.540;23.496;2023-04-01T01:35:31;92576.22;;;8.19;81.82
35888;BME280;21990;42.540;23.496;2023-04-01T01:38:05;92564.66;;;8.22;81.50
35888;BME280;21990;42.540;23.496;2023-04-01T01:40:34;92552.81;;;8.03;82.76
35888;BME280;21990;42.540;23.496;2023-04-01T01:43:06;92567.06;;;7.79;83.96
35888;BME280;21990;42.540;23.496;2023-04-01T01:45:35;92570.97;;;7.89;82.82
35888;BME280;21990;42.540;23.496;2023-04-01T01:48:04;92554.66;;;8.00;82.04
35888;BME280;21990;42.540;23.496;2023-04-01T01:50:33;92555.09;;;8.04;82.87
35888;BME280;21990;42.540;23.496;2023-04-01T01:53:06;92561.75;;;8.15;81.75
35888;BME280;21990;42.540;23.496;2023-04-01T01:55:35;92563.16;;;8.21;81.38
35888;BME280;21990;42.540;23.496;2023-04-01T01:58:19;92556.13;;;8.28;81.03
35888;BME280;21990;42.540;23.496;2023-04-01T02:00:53;92554.97;;;8.23;80.94
35888;BME280;21990;42.540;23.496;2023-04-01T02:03:22;92537.25;;;8.28;79.55
35888;BME280;21990;42.540;23.496;2023-04-01T02:05:50;92521.41;;;8.31;81.41
35888;BME280;21990;42.540;23.496;2023-04-01T02:08:25;92525.38;;;8.35;80.06
35888;BME280;21990;42.540;23.496;2023-04-01T02:11:03;92519.03;;;8.35;78.56
35888;BME280;21990;42.540;23.496;2023-04-01T02:13:41;92525.06;;;8.39;79.79
35888;BME280;21990;42.540;23.496;2023-04-01T02:16:15;92520.97;;;8.40;79.67
35888;BME280;21990;42.540;23.496;2023-04-01T02:18:48;92512.63;;;8.47;79.20
35888;BME280;21990;42.540;23.496;2023-04-01T02:21:16;92517.06;;;8.43;78.76
35888;BME280;21990;42.540;23.496;2023-04-01T02:23:45;92504.19;;;8.47;78.59
35888;BME280;21990;42.540;23.496;2023-04-01T02:26:12;92497.25;;;8.48;77.88
35888;BME280;21990;42.540;23.496;2023-04-01T02:28:40;92493.75;;;8.35;78.92
35888;BME280;21990;42.540;23.496;2023-04-01T02:31:09;92485.94;;;8.41;78.01
35888;BME280;21990;42.540;23.496;2023-04-01T02:33:38;92488.66;;;8.46;72.74
35888;BME280;21990;42.540;23.496;2023-04-01T02:36:04;92486.53;;;8.60;72.57
35888;BME280;21990;42.540;23.496;2023-04-01T02:38:30;92486.81;;;8.70;72.16
35888;BME280;21990;42.540;23.496;2023-04-01T02:41:00;92493.69;;;8.82;72.53
35888;BME280;21990;42.540;23.496;2023-04-01T02:43:28;92494.09;;;8.86;72.87
35888;BME280;21990;42.540;23.496;2023-04-01T02:45:53;92498.47;;;8.94;73.29
35888;BME280;21990;42.540;23.496;2023-04-01T02:48:19;92500.38;;;8.99;72.30
35888;BME280;21990;42.540;23.496;2023-04-01T02:50:45;92502.13;;;9.02;71.95
35888;BME280;21990;42.540;23.496;2023-04-01T02:53:11;92503.00;;;8.97;74.00
35888;BME280;21990;42.540;23.496;2023-04-01T02:55:37;92509.56;;;9.00;73.24
35888;BME280;21990;42.540;23.496;2023-04-01T02:58:02;92500.38;;;8.99;73.50
35888;BME280;21990;42.540;23.496;2023-04-01T03:00:28;92516.34;;;9.04;75.44
35888;BME280;21990;42.540;23.496;2023-04-01T03:02:54;92525.75;;;8.86;75.33
35888;BME280;21990;42.540;23.496;2023-04-01T03:05:20;92528.00;;;8.88;71.30
35888;BME280;21990;42.540;23.496;2023-04-01T03:07:46;92527.94;;;9.01;68.90
35888;BME280;21990;42.540;23.496;2023-04-01T03:10:12;92537.38;;;9.11;68.90
35888;BME280;21990;42.540;23.496;2023-04-01T03:12:38;92542.53;;;9.20;72.19
35888;BME280;21990;42.540;23.496;2023-04-01T03:15:04;92533.16;;;9.18;71.64
35888;BME280;21990;42.540;23.496;2023-04-01T03:17:29;92545.16;;;9.18;71.75
35888;BME280;21990;42.540;23.496;2023-04-01T03:19:55;92539.19;;;9.22;72.38
35888;BME280;21990;42.540;23.496;2023-04-01T03:22:20;92536.72;;;9.18;68.59
35888;BME280;21990;42.540;23.496;2023-04-01T03:24:49;92540.69;;;9.23;71.44
35888;BME280;21990;42.540;23.496;2023-04-01T03:27:15;92542.72;;;9.22;70.99
35888;BME280;21990;42.540;23.496;2023-04-01T03:29:41;92536.72;;;9.18;71.29
35888;BME280;21990;42.540;23.496;2023-04-01T03:32:06;92526.22;;;9.19;71.61
35888;BME280;21990;42.540;23.496;2023-04-01T03:34:32;92529.25;;;9.21;72.46
35888;BME280;21990;42.540;23.496;2023-04-01T03:36:57;92527.94;;;9.22;71.42
35888;BME280;21990;42.540;23.496;2023-04-01T03:39:23;92531.63;;;9.17;71.62
35888;BME280;21990;42.540;23.496;2023-04-01T03:41:53;92539.53;;;9.18;71.82
35888;BME280;21990;42.540;23.496;2023-04-01T03:44:18;92536.38;;;9.22;71.29
35888;BME280;21990;42.540;23.496;2023-04-01T03:46:44;92543.06;;;9.19;71.38
35888;BME280;21990;42.540;23.496;2023-04-01T03:49:10;92532.25;;;9.23;72.21
35888;BME280;21990;42.540;23.496;2023-04-01T03:51:41;92526.56;;;9.15;76.14
35888;BME280;21990;42.540;23.496;2023-04-01T03:54:07;92523.34;;;9.11;72.00
35888;BME280;21990;42.540;23.496;2023-04-01T03:56:32;92525.59;;;9.13;71.86
35888;BME280;21990;42.540;23.496;2023-04-01T03:58:58;92518.81;;;9.08;71.88
35888;BME280;21990;42.540;23.496;2023-04-01T04:01:26;92516.97;;;9.11;71.12
35888;BME280;21990;42.540;23.496;2023-04-01T04:03:51;92503.66;;;9.11;70.92
35888;BME280;21990;42.540;23.496;2023-04-01T04:06:18;92507.44;;;9.14;70.55
35888;BME280;21990;42.540;23.496;2023-04-01T04:08:44;92504.66;;;9.14;71.93
35888;BME280;21990;42.540;23.496;2023-04-01T04:11:09;92493.81;;;9.18;72.51
35888;BME280;21990;42.540;23.496;2023-04-01T04:13:35;92494.41;;;9.24;72.91
35888;BME280;21990;42.540;23.496;2023-04-01T04:16:02;92465.34;;;9.21;72.39
35888;BME280;21990;42.540;23.496;2023-04-01T04:18:28;92452.44;;;8.97;74.18
35888;BME280;21990;42.540;23.496;2023-04-01T04:20:54;92459.56;;;8.98;74.15
35888;BME280;21990;42.540;23.496;2023-04-01T04:23:20;92457.28;;;8.97;73.81
35888;BME280;21990;42.540;23.496;2023-04-01T04:26:00;92453.59;;;9.02;73.37
35888;BME280;21990;42.540;23.496;2023-04-01T04:28:27;92448.16;;;9.04;72.88
35888;BME280;21990;42.540;23.496;2023-04-01T04:30:53;92438.78;;;9.01;74.93
35888;BME280;21990;42.540;23.496;2023-04-01T04:33:21;92439.75;;;9.04;74.87
35888;BME280;21990;42.540;23.496;2023-04-01T04:35:47;92438.78;;;9.01;73.93
35888;BME280;21990;42.540;23.496;2023-04-01T04:38:13;92427.56;;;9.01;73.52
35888;BME280;21990;42.540;23.496;2023-04-01T04:40:40;92422.88;;;9.04;73.34
35888;BME280;21990;42.540;23.496;2023-04-01T04:43:06;92418.78;;;9.05;73.93
35888;BME280;21990;42.540;23.496;2023-04-01T04:45:32;92412.22;;;9.02;74.21
35888;BME280;21990;42.540;23.496;2023-04-01T04:47:57;92407.19;;;9.09;74.37
35888;BME280;21990;42.540;23.496;2023-04-01T04:50:24;92416.38;;;9.09;74.49
35888;BME280;21990;42.540;23.496;2023-04-01T04:52:49;92401.75;;;9.11;74.67
35888;BME280;21990;42.540;23.496;2023-04-01T04:55:15;92389.16;;;9.04;75.03
35888;BME280;21990;42.540;23.496;2023-04-01T04:57:41;92392.38;;;9.08;74.86
35888;BME280;21990;42.540;23.496;2023-04-01T05:00:13;92375.91;;;9.12;74.54
35888;BME280;21990;42.540;23.496;2023-04-01T05:02:38;92379.38;;;8.97;72.20
35888;BME280;21990;42.540;23.496;2023-04-01T05:05:04;92391.03;;;9.01;71.36
35888;BME280;21990;42.540;23.496;2023-04-01T05:07:30;92374.72;;;9.00;71.63
35888;BME280;21990;42.540;23.496;2023-04-01T05:09:56;92364.09;;;9.06;71.42
35888;BME280;21990;42.540;23.496;2023-04-01T05:12:21;92360.97;;;9.17;72.16
35888;BME280;21990;42.540;23.496;2023-04-01T05:14:47;92371.84;;;9.21;71.15
35888;BME280;21990;42.540;23.496;2023-04-01T05:17:13;92361.56;;;9.23;70.32
35888;BME280;21990;42.540;23.496;2023-04-01T05:19:39;92351.28;;;9.26;69.76
35888;BME280;21990;42.540;23.496;2023-04-01T05:22:05;92358.78;;;9.31;69.86
35888;BME280;21990;42.540;23.496;2023-04-01T05:24:31;92365.97;;;9.39;69.58
35888;BME280;21990;42.540;23.496;2023-04-01T05:26:57;92359.03;;;9.40;69.06
35888;BME280;21990;42.540;23.496;2023-04-01T05:29:24;92357.03;;;9.48;68.89
35888;BME280;21990;42.540;23.496;2023-04-01T05:31:50;92364.72;;;9.56;69.23
35888;BME280;21990;42.540;23.496;2023-04-01T05:34:15;92357.09;;;9.64;69.14
35888;BME280;21990;42.540;23.496;2023-04-01T05:36:42;92348.44;;;9.62;68.97
35888;BME280;21990;42.540;23.496;2023-04-01T05:39:07;92349.44;;;9.72;71.44
35888;BME280;21990;42.540;23.496;2023-04-01T05:41:36;92344.97;;;9.84;71.06
35888;BME280;21990;42.540;23.496;2023-04-01T05:44:02;92352.41;;;10.17;77.10
35888;BME280;21990;42.540;23.496;2023-04-01T05:46:28;92358.47;;;10.82;75.50
35888;BME280;21990;42.540;23.496;2023-04-01T05:48:53;92347.66;;;11.41;70.38
35888;BME280;21990;42.540;23.496;2023-04-01T05:51:19;92341.25;;;12.03;61.50
35888;BME280;21990;42.540;23.496;2023-04-01T05:53:45;92336.72;;;12.40;61.06
35888;BME280;21990;42.540;23.496;2023-04-01T05:56:10;92336.63;;;12.55;60.01
35888;BME280;21990;42.540;23.496;2023-04-01T05:58:37;92336.88;;;12.99;58.10
35888;BME280;21990;42.540;23.496;2023-04-01T06:01:04;92341.84;;;13.33;58.38
35888;BME280;21990;42.540;23.496;2023-04-01T06:03:30;92312.53;;;13.90;56.47
35888;BME280;21990;42.540;23.496;2023-04-01T06:05:56;92315.38;;;14.34;55.73
35888;BME280;21990;42.540;23.496;2023-04-01T06:08:21;92325.16;;;14.77;50.74
35888;BME280;21990;42.540;23.496;2023-04-01T06:11:02;92312.00;;;15.17;49.40
35888;BME280;21990;42.540;23.496;2023-04-01T06:22:30;92328.03;;;14.33;50.68
35888;BME280;21990;42.540;23.496;2023-04-01T06:25:24;92323.53;;;13.86;50.69
35888;BME280;21990;42.540;23.496;2023-04-01T06:28:34;92322.13;;;13.60;51.76
35888;BME280;21990;42.540;23.496;2023-04-01T06:39:22;92344.59;;;12.99;53.13
35888;BME280;21990;42.540;23.496;2023-04-01T06:50:40;92323.84;;;13.21;55.43
35888;BME280;21990;42.540;23.496;2023-04-01T06:55:46;92321.78;;;13.21;55.61
35888;BME280;21990;42.540;23.496;2023-04-01T06:58:27;92318.19;;;13.21;54.43
35888;BME280;21990;42.540;23.496;2023-04-01T07:00:58;92308.47;;;13.14;54.35
35888;BME280;21990;42.540;23.496;2023-04-01T07:03:32;92319.13;;;13.23;53.98
35888;BME280;21990;42.540;23.496;2023-04-01T07:06:03;92318.19;;;13.21;54.87
35888;BME280;21990;42.540;23.496;2023-04-01T07:08:29;92311.78;;;13.20;54.62
35888;BME280;21990;42.540;23.496;2023-04-01T07:11:02;92304.97;;;13.23;54.42
35888;BME280;21990;42.540;23.496;2023-04-01T07:13:35;92309.72;;;13.21;54.69
35888;BME280;21990;42.540;23.496;2023-04-01T07:16:13;92310.63;;;13.23;54.88
35888;BME280;21990;42.540;23.496;2023-04-01T07:18:48;92294.66;;;13.18;54.80
35888;BME280;21990;42.540;23.496;2023-04-01T07:21:39;92299.06;;;13.12;55.85
35888;BME280;21990;42.540;23.496;2023-04-01T07:24:11;92301.88;;;13.12;55.44
35888;BME280;21990;42.540;23.496;2023-04-01T07:26:41;92287.38;;;13.08;54.91
35888;BME280;21990;42.540;23.496;2023-04-01T07:29:12;92281.22;;;13.02;54.04
35888;BME280;21990;42.540;23.496;2023-04-01T07:31:49;92269.56;;;12.98;55.55
35888;BME280;21990;42.540;23.496;2023-04-01T07:34:24;92255.66;;;12.92;54.78
35888;BME280;21990;42.540;23.496;2023-04-01T07:37:13;92256.00;;;12.79;54.87
35888;BME280;21990;42.540;23.496;2023-04-01T07:45:56;92262.25;;;12.95;54.43
35888;BME280;21990;42.540;23.496;2023-04-01T07:48:37;92250.47;;;13.23;54.54
35888;BME280;21990;42.540;23.496;2023-04-01T07:59:40;92248.75;;;13.89;53.04
35888;BME280;21990;42.540;23.496;2023-04-01T08:04:57;92240.91;;;14.23;52.39
35888;BME280;21990;42.540;23.496;2023-04-01T08:19:18;92237.28;;;14.40;52.59
35888;BME280;21990;42.540;23.496;2023-04-01T08:21:52;92228.19;;;14.42;52.02
35888;BME280;21990;42.540;23.496;2023-04-01T08:26:56;92213.28;;;14.41;52.51
35888;BME280;21990;42.540;23.496;2023-04-01T08:29:29;92224.16;;;14.45;52.49
35888;BME280;21990;42.540;23.496;2023-04-01T08:34:32;92204.63;;;14.39;52.04
35888;BME280;21990;42.540;23.496;2023-04-01T08:37:14;92205.72;;;14.63;50.98
35888;BME280;21990;42.540;23.496;2023-04-01T08:42:52;92187.06;;;14.60;50.46
35888;BME280;21990;42.540;23.496;2023-04-01T08:54:08;92128.19;;;15.16;49.50
35888;BME280;21990;42.540;23.496;2023-04-01T08:59:31;92128.72;;;15.72;48.50
35888;BME280;21990;42.540;23.496;2023-04-01T09:05:22;92136.25;;;16.08;46.98
35888;BME280;21990;42.540;23.496;2023-04-01T09:08:03;92132.19;;;16.11;47.22
35888;BME280;21990;42.540;23.496;2023-04-01T09:19:15;92104.06;;;16.46;47.99
35888;BME280;21990;42.540;23.496;2023-04-01T09:24:50;92112.97;;;16.31;46.62
35888;BME280;21990;42.540;23.496;2023-04-01T09:32:40;92097.31;;;16.20;48.22
35888;BME280;21990;42.540;23.496;2023-04-01T09:40:37;92096.78;;;17.28;47.03
35888;BME280;21990;42.540;23.496;2023-04-01T09:46:23;92087.84;;;17.87;44.17
35888;BME280;21990;42.540;23.496;2023-04-01T09:54:36;92091.69;;;17.92;42.87
35888;BME280;21990;42.540;23.496;2023-04-01T09:57:39;92086.16;;;17.61;43.94
35888;BME280;21990;42.540;23.496;2023-04-01T10:23:27;92046.88;;;17.15;45.53
35888;BME280;21990;42.540;23.496;2023-04-01T10:29:30;92047.19;;;17.31;46.51
35888;BME280;21990;42.540;23.496;2023-04-01T10:35:24;92044.38;;;17.42;45.42
35888;BME280;21990;42.540;23.496;2023-04-01T10:43:57;92033.84;;;16.79;45.64
35888;BME280;21990;42.540;23.496;2023-04-01T10:49:48;92018.69;;;16.65;46.54
35888;BME280;21990;42.540;23.496;2023-04-01T10:58:43;92025.41;;;16.39;46.76
35888;BME280;21990;42.540;23.496;2023-04-01T11:20:16;92006.47;;;16.10;48.61
35888;BME280;21990;42.540;23.496;2023-04-01T11:46:03;91994.72;;;15.04;51.74
35888;BME280;21990;42.540;23.496;2023-04-01T11:48:49;92019.81;;;15.08;51.82
35888;BME280;21990;42.540;23.496;2023-04-01T11:51:25;92052.06;;;15.03;52.40
35888;BME280;21990;42.540;23.496;2023-04-01T11:54:44;92081.91;;;15.04;53.37
35888;BME280;21990;42.540;23.496;2023-04-01T12:02:30;92226.03;;;14.33;66.14
35888;BME280;21990;42.540;23.496;2023-04-01T12:05:29;92243.78;;;13.79;70.08
35888;BME280;21990;42.540;23.496;2023-04-01T12:10:55;92276.28;;;13.27;75.82
35888;BME280;21990;42.540;23.496;2023-04-01T12:13:56;92263.50;;;13.01;75.62
35888;BME280;21990;42.540;23.496;2023-04-01T12:16:43;92262.34;;;12.62;77.76
35888;BME280;21990;42.540;23.496;2023-04-01T12:19:48;92257.66;;;12.40;79.85
35888;BME280;21990;42.540;23.496;2023-04-01T12:25:22;92258.63;;;12.35;84.11
35888;BME280;21990;42.540;23.496;2023-04-01T12:35:56;92231.34;;;12.30;83.27
35888;BME280;21990;42.540;23.496;2023-04-01T12:44:16;92236.41;;;12.56;87.86
35888;BME280;21990;42.540;23.496;2023-04-01T12:53:09;92219.13;;;12.27;86.45
35888;BME280;21990;42.540;23.496;2023-04-01T12:55:43;92211.34;;;12.11;86.51
35888;BME280;21990;42.540;23.496;2023-04-01T13:01:19;92212.84;;;12.12;87.34
35888;BME280;21990;42.540;23.496;2023-04-01T13:04:05;92225.81;;;12.15;86.10
35888;BME280;21990;42.540;23.496;2023-04-01T13:20:50;92219.22;;;12.62;89.13
35888;BME280;21990;42.540;23.496;2023-04-01T13:31:38;92194.63;;;12.30;88.22
35888;BME280;21990;42.540;23.496;2023-04-01T13:37:34;92162.72;;;12.20;92.16
35888;BME280;21990;42.540;23.496;2023-04-01T13:43:29;92137.25;;;12.03;91.53
35888;BME280;21990;42.540;23.496;2023-04-01T13:51:35;92141.22;;;12.24;94.44
35888;BME280;21990;42.540;23.496;2023-04-01T13:54:16;92143.00;;;12.37;91.49
35888;BME280;21990;42.540;23.496;2023-04-01T13:59:53;92124.81;;;12.65;87.91
35888;BME280;21990;42.540;23.496;2023-04-01T14:06:01;92106.25;;;12.89;92.36
35888;BME280;21990;42.540;23.496;2023-04-01T14:17:24;92056.47;;;13.10;90.03
35888;BME280;21990;42.540;23.496;2023-04-01T14:20:29;92060.25;;;13.22;91.16
35888;BME280;21990;42.540;23.496;2023-04-01T14:23:07;92060.91;;;13.30;93.23
35888;BME280;21990;42.540;23.496;2023-04-01T14:31:47;92050.88;;;13.56;89.90
35888;BME280;21990;42.540;23.496;2023-04-01T14:40:05;92055.97;;;13.58;89.79
35888;BME280;21990;42.540;23.496;2023-04-01T14:45:46;92051.75;;;13.49;87.96
35888;BME280;21990;42.540;23.496;2023-04-01T14:48:34;92066.59;;;13.40;88.34
35888;BME280;21990;42.540;23.496;2023-04-01T14:53:37;92089.00;;;13.28;88.55
35888;BME280;21990;42.540;23.496;2023-04-01T14:56:05;92075.16;;;13.06;89.28
35888;BME280;21990;42.540;23.496;2023-04-01T14:58:57;92088.22;;;13.01;86.52
35888;BME280;21990;42.540;23.496;2023-04-01T15:18:16;92082.88;;;13.05;86.38
35888;BME280;21990;42.540;23.496;2023-04-01T15:23:51;92079.09;;;13.10;87.35
35888;BME280;21990;42.540;23.496;2023-04-01T15:26:33;92071.25;;;13.18;88.26
35888;BME280;21990;42.540;23.496;2023-04-01T15:29:21;92061.84;;;13.16;87.78
35888;BME280;21990;42.540;23.496;2023-04-01T15:31:58;92077.81;;;13.04;83.98
35888;BME280;21990;42.540;23.496;2023-04-01T15:37:26;92048.41;;;12.90;70.83
35888;BME280;21990;42.540;23.496;2023-04-01T15:53:47;92072.84;;;12.77;71.89
35888;BME280;21990;42.540;23.496;2023-04-01T15:59:11;92093.00;;;12.64;76.32
35888;BME280;21990;42.540;23.496;2023-04-01T16:01:50;92098.78;;;12.49;75.24
35888;BME280;21990;42.540;23.496;2023-04-01T16:07:16;92092.50;;;12.41;70.61
35888;BME280;21990;42.540;23.496;2023-04-01T16:21:12;92264.94;;;10.68;77.42
35888;BME280;21990;42.540;23.496;2023-04-01T16:23:57;92286.75;;;10.30;79.64
35888;BME280;21990;42.540;23.496;2023-04-01T16:26:38;92305.00;;;9.78;82.45
35888;BME280;21990;42.540;23.496;2023-04-01T16:31:46;92322.97;;;9.24;86.00
35888;BME280;21990;42.540;23.496;2023-04-01T16:34:26;92339.03;;;9.16;86.13
35888;BME280;21990;42.540;23.496;2023-04-01T16:43:28;92334.78;;;8.66;87.64
35888;BME280;21990;42.540;23.496;2023-04-01T16:57:55;92297.13;;;8.61;88.07
35888;BME280;21990;42.540;23.496;2023-04-01T17:11:16;92303.09;;;8.37;85.80
35888;BME280;21990;42.540;23.496;2023-04-01T17:14:03;92291.34;;;8.38;85.58
35888;BME280;21990;42.540;23.496;2023-04-01T17:16:46;92285.94;;;8.40;83.33
35888;BME280;21990;42.540;23.496;2023-04-01T17:20:14;92278.41;;;8.35;82.54
35888;BME280;21990;42.540;23.496;2023-04-01T17:24:59;92292.50;;;8.43;81.28
35888;BME280;21990;42.540;23.496;2023-04-01T17:27:45;92301.34;;;8.47;80.71
35888;BME280;21990;42.540;23.496;2023-04-01T17:33:11;92312.75;;;8.49;79.81
35888;BME280;21990;42.540;23.496;2023-04-01T17:35:53;92307.34;;;8.51;79.01
35888;BME280;21990;42.540;23.496;2023-04-01T17:41:42;92317.41;;;8.46;78.82
35888;BME280;21990;42.540;23.496;2023-04-01T17:50:14;92359.19;;;8.50;78.01
35888;BME280;21990;42.540;23.496;2023-04-01T17:55:36;92372.50;;;8.57;76.77
35888;BME280;21990;42.540;23.496;2023-04-01T17:58:16;92364.72;;;8.63;76.62
35888;BME280;21990;42.540;23.496;2023-04-01T18:01:08;92368.66;;;8.68;75.98
35888;BME280;21990;42.540;23.496;2023-04-01T18:03:53;92366.63;;;8.68;75.79
35888;BME280;21990;42.540;23.496;2023-04-01T18:06:29;92385.72;;;8.70;77.01
35888;BME280;21990;42.540;23.496;2023-04-01T18:15:27;92383.38;;;8.81;76.30
35888;BME280;21990;42.540;23.496;2023-04-01T18:18:10;92391.88;;;8.89;76.56
35888;BME280;21990;42.540;23.496;2023-04-01T18:21:01;92411.94;;;8.93;77.05
35888;BME280;21990;42.540;23.496;2023-04-01T18:23:39;92408.78;;;8.96;77.55
35888;BME280;21990;42.540;23.496;2023-04-01T18:26:13;92415.84;;;8.90;78.27
35888;BME280;21990;42.540;23.496;2023-04-01T18:28:43;92429.44;;;8.78;76.52
35888;BME280;21990;42.540;23.496;2023-04-01T18:31:18;92442.91;;;8.80;75.81
35888;BME280;21990;42.540;23.496;2023-04-01T18:36:44;92448.53;;;8.80;76.15
35888;BME280;21990;42.540;23.496;2023-04-01T18:39:16;92439.38;;;8.79;75.39
35888;BME280;21990;42.540;23.496;2023-04-01T18:41:52;92455.25;;;8.77;76.22
35888;BME280;21990;42.540;23.496;2023-04-01T18:44:30;92439.28;;;8.72;75.32
35888;BME280;21990;42.540;23.496;2023-04-01T18:49:54;92437.38;;;8.67;75.37
35888;BME280;21990;42.540;23.496;2023-04-01T18:52:23;92442.25;;;8.66;75.41
35888;BME280;21990;42.540;23.496;2023-04-01T18:57:50;92444.63;;;8.62;75.69
35888;BME280;21990;42.540;23.496;2023-04-01T19:00:21;92436.06;;;8.68;75.47
35888;BME280;21990;42.540;23.496;2023-04-01T19:03:01;92441.47;;;8.66;75.40
35888;BME280;21990;42.540;23.496;2023-04-01T19:05:38;92439.97;;;8.65;74.56
35888;BME280;21990;42.540;23.496;2023-04-01T19:11:43;92430.31;;;8.52;74.98
35888;BME280;21990;42.540;23.496;2023-04-01T19:20:03;92440.09;;;8.38;75.29
35888;BME280;21990;42.540;23.496;2023-04-01T19:22:52;92440.03;;;8.31;75.33
35888;BME280;21990;42.540;23.496;2023-04-01T19:25:52;92442.59;;;8.29;75.34
35888;BME280;21990;42.540;23.496;2023-04-01T19:34:05;92440.78;;;8.18;74.86
35888;BME280;21990;42.540;23.496;2023-04-01T19:36:42;92432.16;;;8.16;75.59
35888;BME280;21990;42.540;23.496;2023-04-01T19:39:37;92423.75;;;8.16;75.27
35888;BME280;21990;42.540;23.496;2023-04-01T19:45:26;92451.16;;;8.10;75.97
35888;BME280;21990;42.540;23.496;2023-04-01T19:51:07;92470.28;;;8.11;76.25
35888;BME280;21990;42.540;23.496;2023-04-01T19:53:49;92481.50;;;8.11;76.53
35888;BME280;21990;42.540;23.496;2023-04-01T19:56:18;92473.59;;;8.10;76.37
35888;BME280;21990;42.540;23.496;2023-04-01T19:58:50;92480.84;;;8.05;77.01
35888;BME280;21990;42.540;23.496;2023-04-01T20:01:24;92492.06;;;8.05;77.53
35888;BME280;21990;42.540;23.496;2023-04-01T20:03:58;92486.06;;;8.01;77.74
35888;BME280;21990;42.540;23.496;2023-04-01T20:12:22;92508.81;;;7.98;77.57
35888;BME280;21990;42.540;23.496;2023-04-01T20:14:51;92506.56;;;7.96;77.68
35888;BME280;21990;42.540;23.496;2023-04-01T20:17:48;92507.66;;;7.93;77.60
35888;BME280;21990;42.540;23.496;2023-04-01T20:20:26;92499.75;;;7.92;77.87
35888;BME280;21990;42.540;23.496;2023-04-01T20:25:51;92518.63;;;7.91;76.33
35888;BME280;21990;42.540;23.496;2023-04-01T20:42:38;92497.06;;;7.86;75.26
35888;BME280;21990;42.540;23.496;2023-04-01T20:50:45;92490.06;;;7.93;70.45
35888;BME280;21990;42.540;23.496;2023-04-01T20:53:22;92499.84;;;7.99;71.02
35888;BME280;21990;42.540;23.496;2023-04-01T21:04:22;92496.56;;;8.22;67.68
35888;BME280;21990;42.540;23.496;2023-04-01T21:09:51;92500.56;;;8.26;67.32
35888;BME280;21990;42.540;23.496;2023-04-01T21:12:42;92498.72;;;8.29;66.36
35888;BME280;21990;42.540;23.496;2023-04-01T21:17:51;92503.88;;;8.38;66.35
35888;BME280;21990;42.540;23.496;2023-04-01T21:20:46;92503.88;;;8.38;66.08
35888;BME280;21990;42.540;23.496;2023-04-01T21:35:01;92507.44;;;8.38;65.75
35888;BME280;21990;42.540;23.496;2023-04-01T21:47:18;92526.91;;;8.23;67.45
35888;BME280;21990;42.540;23.496;2023-04-01T21:58:23;92536.84;;;8.11;68.87
35888;BME280;21990;42.540;23.496;2023-04-01T22:04:05;92541.16;;;8.12;69.80
35888;BME280;21990;42.540;23.496;2023-04-01T22:06:46;92537.38;;;8.09;69.34
35888;BME280;21990;42.540;23.496;2023-04-01T22:09:32;92539.03;;;8.05;69.49
35888;BME280;21990;42.540;23.496;2023-04-01T22:12:17;92538.47;;;8.06;69.68
35888;BME280;21990;42.540;23.496;2023-04-01T22:15:25;92548.41;;;8.07;70.07
35888;BME280;21990;42.540;23.496;2023-04-01T22:18:05;92553.38;;;8.01;69.80
35888;BME280;21990;42.540;23.496;2023-04-01T22:20:42;92551.88;;;8.00;69.77